createdAt,value
2022-09-03T00:01:45.356Z,19.40
2022-09-03T00:04:37.192Z,19.30
2022-09-03T00:07:11.585Z,19.40
2022-09-03T00:09:49.401Z,19.30
2022-09-03T00:12:19.693Z,19.30
2022-09-03T00:14:50.360Z,19.20
2022-09-03T00:17:20.989Z,19.20
2022-09-03T00:19:55.655Z,19.10
2022-09-03T00:22:28.646Z,19.10
2022-09-03T00:25:00.385Z,19.10
2022-09-03T00:27:28.634Z,19.10
2022-09-03T00:30:04.227Z,19.10
2022-09-03T00:32:41.243Z,19.00
2022-09-03T00:35:16.921Z,19.00
2022-09-03T00:37:44.271Z,19.00
2022-09-03T00:40:33.699Z,19.00
2022-09-03T00:43:22.252Z,19.00
2022-09-03T00:46:07.042Z,18.90
2022-09-03T00:48:54.712Z,18.90
2022-09-03T00:51:44.311Z,18.90
2022-09-03T00:54:35.731Z,18.80
2022-09-03T00:57:25.576Z,18.80
2022-09-03T01:00:21.466Z,18.80
2022-09-03T01:03:09.830Z,18.80
2022-09-03T01:05:44.915Z,18.70
2022-09-03T01:08:33.245Z,18.70
2022-09-03T01:11:10.492Z,18.70
2022-09-03T01:13:40.848Z,18.70
2022-09-03T01:16:25.823Z,18.70
2022-09-03T01:19:41.490Z,18.70
2022-09-03T01:22:42.850Z,18.60
2022-09-03T01:25:43.841Z,18.60
2022-09-03T01:28:42.286Z,18.60
2022-09-03T01:31:21.267Z,18.60
2022-09-03T01:34:01.848Z,18.60
2022-09-03T01:36:49.571Z,18.60
2022-09-03T01:39:56.530Z,18.70
2022-09-03T01:42:42.005Z,18.70
2022-09-03T01:45:21.550Z,18.70
2022-09-03T01:47:50.062Z,18.70
2022-09-03T01:50:39.407Z,18.70
2022-09-03T01:53:25.538Z,18.70
2022-09-03T01:56:11.101Z,18.70
2022-09-03T01:58:48.162Z,18.70
2022-09-03T02:01:24.971Z,18.70
2022-09-03T02:03:52.076Z,18.70
2022-09-03T02:06:20.853Z,18.70
2022-09-03T02:08:47.587Z,18.70
2022-09-03T02:11:14.447Z,18.70
2022-09-03T02:13:54.960Z,18.60
2022-09-03T02:16:28.389Z,18.60
2022-09-03T02:19:01.181Z,18.60
2022-09-03T02:21:34.480Z,18.60
2022-09-03T02:24:02.962Z,18.60
2022-09-03T02:26:29.614Z,18.50
2022-09-03T02:28:57.608Z,18.60
2022-09-03T02:31:24.563Z,18.50
2022-09-03T02:33:51.533Z,18.50
2022-09-03T02:36:21.476Z,18.50
2022-09-03T02:38:49.087Z,18.50
2022-09-03T02:41:15.783Z,18.50
2022-09-03T02:43:51.029Z,18.50
2022-09-03T02:46:21.795Z,18.40
2022-09-03T02:48:49.041Z,18.40
2022-09-03T02:51:16.139Z,18.40
2022-09-03T02:53:43.648Z,18.30
2022-09-03T02:56:10.957Z,18.30
2022-09-03T02:58:37.924Z,18.30
2022-09-03T03:01:05.538Z,18.30
2022-09-03T03:03:32.859Z,18.30
2022-09-03T03:06:02.773Z,18.30
2022-09-03T03:08:30.352Z,18.20
2022-09-03T03:10:58.698Z,18.20
2022-09-03T03:13:29.731Z,18.20
2022-09-03T03:15:58.700Z,18.20
2022-09-03T03:18:25.578Z,18.20
2022-09-03T03:20:52.518Z,18.20
2022-09-03T03:23:19.427Z,18.20
2022-09-03T03:25:47.728Z,18.20
2022-09-03T03:28:15.232Z,18.20
2022-09-03T03:30:43.062Z,18.20
2022-09-03T03:33:10.430Z,18.20
2022-09-03T03:35:37.237Z,18.20
2022-09-03T03:38:05.060Z,18.20
2022-09-03T03:40:31.924Z,18.20
2022-09-03T03:42:59.149Z,18.20
2022-09-03T03:45:26.149Z,18.20
2022-09-03T03:47:56.807Z,18.20
2022-09-03T03:50:23.886Z,18.20
2022-09-03T03:52:50.926Z,18.20
2022-09-03T03:55:17.604Z,18.20
2022-09-03T03:57:44.334Z,18.20
2022-09-03T04:00:11.482Z,18.20
2022-09-03T04:02:39.315Z,18.20
2022-09-03T04:05:06.466Z,18.20
2022-09-03T04:07:34.329Z,18.10
2022-09-03T04:10:01.160Z,18.10
2022-09-03T04:12:27.952Z,18.10
2022-09-03T04:14:54.609Z,18.10
2022-09-03T04:17:25.114Z,18.10
2022-09-03T04:19:52.257Z,18.10
2022-09-03T04:22:20.623Z,18.00
2022-09-03T04:24:47.322Z,18.00
2022-09-03T04:27:13.966Z,18.00
2022-09-03T04:29:40.636Z,18.00
2022-09-03T04:32:25.827Z,18.00
2022-09-03T04:34:52.500Z,17.90
2022-09-03T04:37:20.288Z,17.90
2022-09-03T04:39:47.226Z,17.90
2022-09-03T04:42:14.062Z,17.90
2022-09-03T04:44:41.230Z,17.90
2022-09-03T04:47:08.227Z,17.90
2022-09-03T04:49:34.937Z,17.90
2022-09-03T04:52:02.913Z,17.90
2022-09-03T04:54:29.913Z,17.90
2022-09-03T04:56:57.234Z,17.80
2022-09-03T04:59:24.232Z,17.90
2022-09-03T05:01:52.745Z,17.80
2022-09-03T05:04:19.876Z,17.80
2022-09-03T05:06:46.637Z,17.80
2022-09-03T05:09:13.353Z,17.80
2022-09-03T05:11:40.035Z,17.70
2022-09-03T05:14:07.243Z,17.80
2022-09-03T05:16:34.054Z,17.70
2022-09-03T05:19:01.401Z,17.70
2022-09-03T05:21:29.910Z,17.70
2022-09-03T05:23:57.034Z,17.70
2022-09-03T05:26:29.101Z,17.70
2022-09-03T05:28:58.962Z,17.70
2022-09-03T05:31:28.346Z,17.60
2022-09-03T05:34:00.450Z,17.60
2022-09-03T05:36:34.685Z,17.60
2022-09-03T05:39:01.696Z,17.60
2022-09-03T05:41:28.980Z,17.60
2022-09-03T05:43:59.143Z,17.60
2022-09-03T05:46:32.032Z,17.60
2022-09-03T05:49:03.873Z,17.60
2022-09-03T05:51:31.264Z,17.60
2022-09-03T05:53:58.527Z,17.60
2022-09-03T05:56:27.805Z,17.60
2022-09-03T05:58:57.609Z,17.70
2022-09-03T06:01:26.680Z,17.70
2022-09-03T06:04:01.424Z,17.70
2022-09-03T06:06:31.575Z,17.70
2022-09-03T06:09:00.725Z,17.70
2022-09-03T06:11:31.032Z,17.70
2022-09-03T06:14:00.189Z,17.70
2022-09-03T06:16:30.769Z,17.70
2022-09-03T06:19:01.914Z,17.70
2022-09-03T06:21:29.433Z,17.80
2022-09-03T06:23:59.384Z,17.80
2022-09-03T06:26:28.602Z,17.80
2022-09-03T06:28:56.994Z,17.80
2022-09-03T06:31:24.515Z,17.90
2022-09-03T06:33:53.016Z,18.00
2022-09-03T06:36:21.006Z,18.00
2022-09-03T06:38:48.351Z,18.00
2022-09-03T06:41:25.198Z,18.10
2022-09-03T06:44:03.038Z,18.20
2022-09-03T06:46:31.500Z,18.20
2022-09-03T06:48:58.240Z,18.30
2022-09-03T06:51:27.240Z,18.30
2022-09-03T06:54:09.248Z,18.40
2022-09-03T06:56:40.313Z,18.40
2022-09-03T06:59:10.730Z,18.50
2022-09-03T07:01:40.809Z,18.60
2022-09-03T07:04:12.862Z,18.60
2022-09-03T07:06:40.833Z,18.70
2022-09-03T07:09:08.194Z,18.70
2022-09-03T07:11:36.013Z,18.80
2022-09-03T07:14:04.698Z,18.90
2022-09-03T07:16:36.738Z,19.00
2022-09-03T07:19:04.707Z,19.10
2022-09-03T07:21:44.062Z,19.20
2022-09-03T07:24:15.197Z,19.30
2022-09-03T07:26:47.091Z,19.40
2022-09-03T07:29:15.764Z,19.50
2022-09-03T07:31:43.702Z,19.60
2022-09-03T07:34:12.613Z,19.70
2022-09-03T07:36:42.900Z,19.80
2022-09-03T07:39:11.586Z,19.90
2022-09-03T07:41:39.087Z,20.00
2022-09-03T07:44:05.904Z,20.10
2022-09-03T07:46:35.232Z,20.20
2022-09-03T07:49:05.308Z,20.30
2022-09-03T07:51:37.122Z,20.40
2022-09-03T07:54:07.665Z,20.50
2022-09-03T07:56:35.865Z,20.60
2022-09-03T07:59:03.376Z,20.70
2022-09-03T08:01:32.745Z,20.80
2022-09-03T08:04:00.066Z,20.90
2022-09-03T08:06:29.388Z,20.90
2022-09-03T08:09:05.060Z,21.10
2022-09-03T08:11:43.640Z,21.10
2022-09-03T08:14:12.505Z,21.20
2022-09-03T08:16:42.245Z,21.30
2022-09-03T08:19:09.204Z,21.40
2022-09-03T08:21:36.210Z,21.40
2022-09-03T08:24:03.568Z,21.50
2022-09-03T08:26:32.877Z,21.60
2022-09-03T08:29:00.163Z,21.70
2022-09-03T08:31:28.247Z,21.80
2022-09-03T08:33:56.736Z,21.80
2022-09-03T08:36:30.043Z,21.90
2022-09-03T08:38:58.575Z,22.00
2022-09-03T08:41:53.053Z,22.10
2022-09-03T08:44:37.811Z,22.20
2022-09-03T08:47:17.100Z,22.20
2022-09-03T08:49:59.119Z,22.30
2022-09-03T08:53:02.001Z,22.40
2022-09-03T08:55:36.256Z,22.40
2022-09-03T08:58:16.249Z,22.50
2022-09-03T09:01:04.168Z,22.60
2022-09-03T09:03:36.536Z,22.70
2022-09-03T09:06:32.137Z,22.80
2022-09-03T09:08:58.779Z,22.90
2022-09-03T09:11:40.282Z,23.00
2022-09-03T09:14:15.814Z,23.00
2022-09-03T09:16:45.221Z,23.10
2022-09-03T09:19:53.098Z,23.20
2022-09-03T09:22:41.254Z,23.30
2022-09-03T09:25:19.288Z,23.40
2022-09-03T09:27:56.868Z,23.50
2022-09-03T09:30:23.617Z,23.50
2022-09-03T09:32:50.935Z,23.70
2022-09-03T09:35:18.897Z,23.70
2022-09-03T09:37:54.039Z,23.80
2022-09-03T09:40:33.809Z,23.80
2022-09-03T09:43:05.406Z,23.90
2022-09-03T09:45:35.235Z,23.90
2022-09-03T09:48:07.064Z,24.00
2022-09-03T09:50:33.821Z,24.10
2022-09-03T09:53:04.190Z,24.10
2022-09-03T09:55:32.385Z,24.20
2022-09-03T09:58:14.041Z,24.30
2022-09-03T10:00:42.733Z,24.40
2022-09-03T10:03:13.754Z,24.50
2022-09-03T10:05:40.913Z,24.60
2022-09-03T10:08:19.581Z,24.60
2022-09-03T10:10:49.823Z,24.70
2022-09-03T10:13:34.816Z,24.80
2022-09-03T10:16:08.683Z,24.90
2022-09-03T10:18:51.824Z,24.90
2022-09-03T10:21:27.213Z,25.00
2022-09-03T10:24:07.151Z,25.10
2022-09-03T10:26:36.928Z,25.20
2022-09-03T10:29:07.535Z,25.20
2022-09-03T10:31:39.847Z,25.30
2022-09-03T10:34:24.651Z,25.40
2022-09-03T10:37:29.761Z,25.50
2022-09-03T10:40:15.660Z,25.50
2022-09-03T10:43:00.108Z,25.60
2022-09-03T10:45:42.103Z,25.60
2022-09-03T10:48:43.101Z,25.80
2022-09-03T10:51:34.999Z,25.80
2022-09-03T10:54:28.968Z,25.90
2022-09-03T10:56:58.363Z,26.00
2022-09-03T10:59:39.901Z,26.10
2022-09-03T11:02:21.269Z,26.20
2022-09-03T11:04:54.376Z,26.30
2022-09-03T11:07:26.758Z,26.40
2022-09-03T11:10:06.076Z,26.50
2022-09-03T11:12:44.880Z,26.50
2022-09-03T11:15:36.171Z,26.70
2022-09-03T11:18:24.601Z,26.80
2022-09-03T11:20:54.792Z,26.90
2022-09-03T11:23:24.451Z,26.90
2022-09-03T11:25:54.155Z,27.00
2022-09-03T11:28:42.126Z,27.10
2022-09-03T11:32:00.029Z,27.10
2022-09-03T11:34:32.329Z,27.20
2022-09-03T11:37:18.530Z,27.30
2022-09-03T11:39:53.000Z,27.40
2022-09-03T11:42:35.363Z,27.40
2022-09-03T11:45:20.223Z,27.50
2022-09-03T11:47:47.190Z,27.50
2022-09-03T11:50:24.914Z,27.50
2022-09-03T11:52:54.340Z,27.60
2022-09-03T11:55:38.265Z,27.60
2022-09-03T11:58:24.150Z,27.60
2022-09-03T12:00:53.264Z,27.70
2022-09-03T12:03:28.523Z,27.70
2022-09-03T12:06:03.799Z,27.80
2022-09-03T12:09:08.124Z,27.80
2022-09-03T12:11:51.857Z,27.80
2022-09-03T12:15:06.308Z,27.90
2022-09-03T12:18:13.915Z,27.90
2022-09-03T12:20:42.048Z,28.00
2022-09-03T12:23:11.840Z,28.00
2022-09-03T12:25:47.451Z,28.10
2022-09-03T12:28:21.652Z,28.10
2022-09-03T12:30:48.381Z,28.10
2022-09-03T12:33:18.354Z,28.10
2022-09-03T12:35:58.929Z,28.10
2022-09-03T12:38:40.582Z,28.20
2022-09-03T12:41:26.813Z,28.20
2022-09-03T12:43:57.065Z,28.20
2022-09-03T12:46:34.544Z,28.20
2022-09-03T12:52:06.086Z,28.40
2022-09-03T12:54:39.557Z,28.40
2022-09-03T12:57:06.360Z,28.50
2022-09-03T12:59:37.220Z,28.50
2022-09-03T13:02:17.901Z,28.60
2022-09-03T13:04:46.183Z,28.60
2022-09-03T13:07:27.200Z,28.70
2022-09-03T13:10:03.787Z,28.70
2022-09-03T13:12:43.125Z,28.80
2022-09-03T13:15:19.702Z,28.80
2022-09-03T13:17:57.551Z,28.80
2022-09-03T13:20:45.539Z,28.90
2022-09-03T13:23:15.661Z,28.90
2022-09-03T13:26:16.166Z,28.90
2022-09-03T13:28:55.491Z,28.90
2022-09-03T13:31:47.987Z,29.00
2022-09-03T13:34:33.638Z,29.10
2022-09-03T13:37:25.811Z,29.10
2022-09-03T13:39:58.031Z,29.20
2022-09-03T13:42:40.745Z,29.30
2022-09-03T13:45:37.265Z,29.40
2022-09-03T13:48:55.473Z,29.60
2022-09-03T13:51:30.232Z,29.70
2022-09-03T13:54:11.909Z,29.90
2022-09-03T13:56:49.162Z,30.30
2022-09-03T13:59:28.949Z,30.80
2022-09-03T14:02:19.539Z,31.30
2022-09-03T14:05:06.619Z,31.90
2022-09-03T14:07:56.909Z,32.30
2022-09-03T14:10:52.697Z,32.70
2022-09-03T14:13:25.111Z,33.20
2022-09-03T14:16:04.872Z,33.40
2022-09-03T14:18:58.414Z,33.80
2022-09-03T14:21:56.472Z,34.10
2022-09-03T14:24:47.546Z,34.30
2022-09-03T14:27:25.107Z,34.50
2022-09-03T14:29:58.705Z,34.70
2022-09-03T14:32:57.846Z,34.80
2022-09-03T14:35:44.800Z,34.80
2022-09-03T14:38:26.358Z,34.60
2022-09-03T14:41:14.326Z,34.40
2022-09-03T14:44:20.793Z,34.20
2022-09-03T14:46:56.784Z,33.90
2022-09-03T14:49:35.519Z,33.60
2022-09-03T14:52:17.238Z,33.40
2022-09-03T14:55:02.445Z,33.30
2022-09-03T14:57:47.828Z,33.10
2022-09-03T15:00:41.424Z,32.90
2022-09-03T15:03:16.858Z,32.60
2022-09-03T15:06:03.526Z,32.40
2022-09-03T15:08:32.937Z,32.20
2022-09-03T15:11:03.830Z,32.00
2022-09-03T15:13:37.466Z,31.80
2022-09-03T15:16:22.717Z,31.70
2022-09-03T15:19:10.012Z,31.50
2022-09-03T15:21:42.828Z,31.30
2022-09-03T15:24:40.272Z,31.20
2022-09-03T15:27:20.691Z,31.10
2022-09-03T15:30:14.580Z,30.90
2022-09-03T15:32:53.149Z,30.80
2022-09-03T15:35:52.177Z,30.70
2022-09-03T15:38:21.713Z,30.50
2022-09-03T15:40:48.340Z,30.40
2022-09-03T15:43:30.745Z,30.40
2022-09-03T15:46:02.987Z,30.40
2022-09-03T15:48:48.797Z,30.40
2022-09-03T15:51:23.234Z,30.40
2022-09-03T15:54:16.045Z,30.50
2022-09-03T15:56:49.306Z,30.70
2022-09-03T15:59:23.649Z,30.80
2022-09-03T16:02:10.984Z,30.90
2022-09-03T16:05:06.319Z,30.90
2022-09-03T16:07:38.714Z,30.90
2022-09-03T16:10:25.377Z,30.90
2022-09-03T16:13:30.037Z,30.80
2022-09-03T16:16:10.423Z,30.70
2022-09-03T16:19:01.181Z,30.70
2022-09-03T16:21:45.900Z,30.60
2022-09-03T16:24:48.900Z,30.60
2022-09-03T16:27:50.695Z,30.50
2022-09-03T16:30:44.735Z,30.40
2022-09-03T16:33:24.862Z,30.40
2022-09-03T16:36:16.688Z,30.40
2022-09-03T16:39:03.349Z,30.40
2022-09-03T16:41:43.282Z,30.30
2022-09-03T16:44:21.825Z,30.30
2022-09-03T16:47:07.789Z,30.40
2022-09-03T16:50:05.401Z,30.40
2022-09-03T16:52:56.804Z,30.40
2022-09-03T16:55:30.495Z,30.40
2022-09-03T16:58:10.586Z,30.30
2022-09-03T17:01:03.820Z,30.30
2022-09-03T17:03:52.416Z,30.30
2022-09-03T17:06:29.808Z,30.30
2022-09-03T17:09:15.119Z,30.30
2022-09-03T17:12:18.879Z,30.30
2022-09-03T17:15:03.701Z,30.30
2022-09-03T17:17:49.365Z,30.10
2022-09-03T17:20:35.544Z,30.00
2022-09-03T17:23:47.872Z,29.90
2022-09-03T17:26:29.890Z,29.80
2022-09-03T17:29:28.028Z,29.60
2022-09-03T17:32:21.170Z,29.50
2022-09-03T17:35:02.591Z,29.30
2022-09-03T17:37:56.556Z,29.20
2022-09-03T17:40:36.075Z,29.10
2022-09-03T17:43:09.002Z,29.00
2022-09-03T17:46:13.338Z,28.90
2022-09-03T17:48:51.728Z,28.70
2022-09-03T17:51:36.920Z,28.60
2022-09-03T17:54:39.366Z,28.40
2022-09-03T17:57:14.622Z,28.30
2022-09-03T17:59:57.681Z,28.10
2022-09-03T18:02:31.119Z,28.00
2022-09-03T18:05:01.557Z,27.80
2022-09-03T18:07:44.710Z,27.70
2022-09-03T18:10:32.032Z,27.60
2022-09-03T18:13:23.605Z,27.40
2022-09-03T18:16:14.175Z,27.20
2022-09-03T18:18:52.571Z,27.10
2022-09-03T18:21:43.976Z,26.90
2022-09-03T18:24:58.590Z,26.80
2022-09-03T18:27:57.836Z,26.60
2022-09-03T18:30:44.445Z,26.40
2022-09-03T18:33:36.528Z,26.30
2022-09-03T18:36:23.401Z,26.10
2022-09-03T18:39:08.825Z,26.00
2022-09-03T18:42:22.731Z,25.80
2022-09-03T18:45:21.902Z,25.70
2022-09-03T18:48:30.058Z,25.50
2022-09-03T18:51:48.399Z,25.30
2022-09-03T18:55:06.870Z,25.20
2022-09-03T18:58:16.874Z,25.00
2022-09-03T19:01:20.347Z,24.90
2022-09-03T19:04:49.046Z,24.70
2022-09-03T19:08:03.700Z,24.60
2022-09-03T19:11:16.590Z,24.40
2022-09-03T19:14:02.121Z,24.30
2022-09-03T19:17:07.446Z,24.20
2022-09-03T19:20:15.254Z,24.00
2022-09-03T19:23:01.053Z,23.90
2022-09-03T19:25:48.344Z,23.80
2022-09-03T19:28:44.868Z,23.70
2022-09-03T19:32:05.243Z,23.60
2022-09-03T19:35:17.822Z,23.50
2022-09-03T19:38:18.793Z,23.40
2022-09-03T19:41:25.802Z,23.30
2022-09-03T19:44:32.592Z,23.20
2022-09-03T19:47:21.081Z,23.10
2022-09-03T19:50:39.970Z,22.90
2022-09-03T19:53:37.304Z,22.90
2022-09-03T19:56:29.474Z,22.80
2022-09-03T19:59:20.082Z,22.70
2022-09-03T20:02:07.362Z,22.60
2022-09-03T20:05:02.912Z,22.50
2022-09-03T20:07:48.390Z,22.40
2022-09-03T20:10:23.612Z,22.40
2022-09-03T20:13:13.470Z,22.30
2022-09-03T20:15:57.761Z,22.20
2022-09-03T20:18:49.522Z,22.10
2022-09-03T20:21:27.493Z,22.00
2022-09-03T20:24:00.103Z,21.90
2022-09-03T20:26:43.729Z,21.90
2022-09-03T20:29:22.316Z,21.80
2022-09-03T20:32:04.410Z,21.80
2022-09-03T20:34:54.688Z,21.70
2022-09-03T20:37:24.810Z,21.70
2022-09-03T20:40:04.941Z,21.60
2022-09-03T20:42:57.478Z,21.50
2022-09-03T20:45:49.741Z,21.50
2022-09-03T20:48:28.265Z,21.40
2022-09-03T20:51:06.164Z,21.30
2022-09-03T20:54:03.557Z,21.30
2022-09-03T20:56:36.332Z,21.20
2022-09-03T20:59:12.385Z,21.10
2022-09-03T21:01:48.144Z,21.10
2022-09-03T21:04:22.546Z,21.00
2022-09-03T21:07:10.413Z,21.00
2022-09-03T21:09:58.999Z,21.00
2022-09-03T21:12:51.500Z,20.90
2022-09-03T21:15:40.324Z,20.90
2022-09-03T21:18:23.196Z,20.80
2022-09-03T21:20:59.845Z,20.80
2022-09-03T21:23:32.506Z,20.70
2022-09-03T21:26:14.635Z,20.70
2022-09-03T21:28:45.711Z,20.60
2022-09-03T21:31:24.064Z,20.60
2022-09-03T21:33:55.732Z,20.60
2022-09-03T21:36:35.889Z,20.50
2022-09-03T21:39:19.792Z,20.50
2022-09-03T21:42:00.174Z,20.50
2022-09-03T21:44:45.105Z,20.40
2022-09-03T21:47:18.606Z,20.40
2022-09-03T21:50:01.155Z,20.30
2022-09-03T21:52:53.299Z,20.30
2022-09-03T21:55:39.266Z,20.30
2022-09-03T21:58:15.649Z,20.20
2022-09-03T22:00:43.679Z,20.20
2022-09-03T22:03:10.496Z,20.10
2022-09-03T22:05:55.325Z,20.10
2022-09-03T22:08:53.783Z,20.10
2022-09-03T22:11:35.553Z,20.00
2022-09-03T22:14:17.327Z,20.00
2022-09-03T22:17:05.479Z,20.00
2022-09-03T22:19:37.602Z,20.00
2022-09-03T22:22:18.682Z,19.90
2022-09-03T22:24:52.837Z,19.90
2022-09-03T22:27:25.202Z,19.80
2022-09-03T22:30:12.064Z,19.80
2022-09-03T22:32:47.642Z,19.80
2022-09-03T22:35:22.152Z,19.70
2022-09-03T22:38:10.059Z,19.70
2022-09-03T22:40:49.127Z,19.70
2022-09-03T22:43:39.509Z,19.60
2022-09-03T22:46:13.597Z,19.60
2022-09-03T22:49:02.122Z,19.50
2022-09-03T22:51:36.026Z,19.50
2022-09-03T22:54:22.940Z,19.50
2022-09-03T22:56:51.510Z,19.50
2022-09-03T22:59:26.280Z,19.40
2022-09-03T23:02:02.884Z,19.40
2022-09-03T23:04:58.170Z,19.30
2022-09-03T23:07:39.178Z,19.30
2022-09-03T23:10:11.488Z,19.20
2022-09-03T23:12:52.076Z,19.30
2022-09-03T23:15:23.112Z,19.20
2022-09-03T23:18:00.365Z,19.20
2022-09-03T23:20:29.130Z,19.20
2022-09-03T23:23:10.103Z,19.10
2022-09-03T23:25:42.073Z,19.10
2022-09-03T23:28:11.202Z,19.10
2022-09-03T23:30:38.148Z,19.00
2022-09-03T23:33:05.247Z,19.00
2022-09-03T23:35:45.045Z,19.00
2022-09-03T23:38:29.588Z,19.00
2022-09-03T23:41:04.580Z,19.00
2022-09-03T23:43:55.699Z,18.90
2022-09-03T23:47:04.330Z,18.90
2022-09-03T23:50:01.218Z,18.90
2022-09-03T23:52:56.833Z,18.80
2022-09-03T23:55:31.903Z,18.80
2022-09-03T23:58:18.065Z,18.80
